27. Juni 2022

Uhrzeit Code Wetter Temp. Sichtweite Wolkendecke Wind METAR/SPECI
2:55 pm
V
66 °F 6¼ mi+ - Var Var 2 kt METAR EHGG 271255Z AUTO VRB02KT 9999 -RA FEW015CB 19/15 Q1016 NOSIG
2:25 pm
V
64 °F 6¼ mi+ - Var Var 2 kt METAR EHGG 271225Z AUTO VRB02KT 9999 DZRA NSC 18/15 Q1016 NOSIG
1:55 pm
V
64 °F 6¼ mi+ - Var Var 2 kt METAR EHGG 271155Z AUTO VRB02KT 9999 -DZ NSC 18/15 Q1016 NOSIG
1:25 pm
V
66 °F 6¼ mi+ - 180° 180° 3 kt METAR EHGG 271125Z AUTO 18003KT 130V230 9999 FEW037 19/15 Q1016 NOSIG
12:55 pm
V
64 °F 6¼ mi+ 3.800 ft 190° 190° 3 kt METAR EHGG 271055Z AUTO 19003KT 150V220 9999 FEW011 BKN038 18/15 Q1016 NOSIG
12:25 pm
V
64 °F 6¼ mi+ - 180° 180° 3 kt METAR EHGG 271025Z AUTO 18003KT 120V230 9999 NSC 18/15 Q1016 NOSIG
11:55 am
V
64 °F 6¼ mi+ - 220° 220° 3 kt METAR EHGG 270955Z AUTO 22003KT 190V260 9999 NSC 18/15 Q1016 NOSIG
11:25 am
V
64 °F 6¼ mi+ - Var Var 2 kt METAR EHGG 270925Z AUTO VRB02KT 9999 NSC 18/15 Q1015 NOSIG
10:55 am
V
63 °F 6¼ mi+ - Var Var 2 kt METAR EHGG 270855Z AUTO VRB02KT 9999 NSC 17/15 Q1015 NOSIG
10:25 am
V
63 °F 6¼ mi+ - 060° 060° 3 kt METAR EHGG 270825Z AUTO 06003KT 9999 NSC 17/15 Q1015 NOSIG
9:55 am
V
63 °F 6¼ mi+ - Var Var 2 kt METAR EHGG 270755Z AUTO VRB02KT 9999 FEW029 17/15 Q1015 NOSIG
9:25 am
V
63 °F 6¼ mi+ - 270° 270° 4 kt METAR EHGG 270725Z AUTO 27004KT 240V310 9999 FEW027 17/15 Q1015 NOSIG
8:55 am
V
61 °F 6¼ mi+ - 220° 220° 1 kt METAR EHGG 270655Z AUTO 22001KT 9999 NSC 16/15 Q1014 NOSIG
8:25 am
V
61 °F 6¼ mi+ - Var Var 2 kt METAR EHGG 270625Z AUTO VRB02KT 9999 NSC 16/15 Q1014 NOSIG
7:55 am
V
61 °F 6¼ mi+ - Var Var 1 kt METAR EHGG 270555Z AUTO VRB01KT 9999 -RA NSC 16/15 Q1014 TEMPO RA
7:25 am
V
61 °F 6¼ mi+ - 110° 110° 5 kt METAR EHGG 270525Z AUTO 11005KT 070V160 9999 -RA NSC 16/15 Q1015 TEMPO BKN004
6:55 am
V
61 °F 6¼ mi+ - 120° 120° 5 kt METAR EHGG 270455Z AUTO 12005KT 070V170 9999 SCT004 SCT006 16/15 Q1015 TEMPO BKN004
6:25 am
M
61 °F 4⅜ mi - 100° 100° 3 kt METAR EHGG 270425Z AUTO 10003KT 070V140 7000 -DZ FEW004/// 16/15 Q1015 TEMPO BKN004
5:55 am
M
61 °F 4⅜ mi - 100° 100° 4 kt METAR EHGG 270355Z AUTO 10004KT 070V140 7000 -RA NSC 16/16 Q1015 NOSIG
5:25 am
M
61 °F 4⅜ mi - 080° 080° 4 kt METAR EHGG 270325Z AUTO 08004KT 050V110 7000 NSC 16/16 Q1015
4:55 am
I
61 °F 2⅝ mi - 070° 070° 3 kt METAR EHGG 270255Z AUTO 07003KT 4300 BR NSC 16/16 Q1015
4:25 am
M
61 °F 3¾ mi - 300° 300° 2 kt METAR EHGG 270225Z AUTO 30002KT 6000 -RADZ FEW015CB 16/16 Q1015 REDZRA
3:55 am
V
61 °F 5⅝ mi - Var Var 2 kt METAR EHGG 270155Z AUTO VRB02KT 9000 FEW015CB 16/15 Q1015 REDZ
3:25 am
V
61 °F 6¼ mi+ - Var Var 2 kt METAR EHGG 270125Z AUTO VRB02KT 9999 DZ NSC 16/15 Q1015
2:55 am
V
63 °F 6¼ mi+ - 090° 090° 4 kt METAR EHGG 270055Z AUTO 09004KT 9999 NSC 17/16 Q1015 REDZ
2:25 am
V
63 °F 6¼ mi+ - 080° 080° 4 kt METAR EHGG 270025Z AUTO 08004KT 9999 DZ NSC 17/16 Q1015
1:55 am
V
63 °F 6¼ mi+ 3.600 ft 090° 090° 4 kt METAR EHGG 262355Z AUTO 09004KT 9999 BKN036 OVC042 17/16 Q1015
1:25 am
V
63 °F 6¼ mi+ 3.700 ft 090° 090° 3 kt METAR EHGG 262325Z AUTO 09003KT 9999 BKN037 17/16 Q1015
12:55 am
V
63 °F 6¼ mi+ - 080° 080° 6 kt METAR EHGG 262255Z AUTO 08006KT 9999 -DZ FEW015CB 17/15 Q1015
12:25 am
V
63 °F 6¼ mi+ - 070° 070° 5 kt METAR EHGG 262225Z AUTO 07005KT 9999 FEW015CB 17/15 Q1016

26. Juni 2022

Uhrzeit Code Wetter Temp. Sichtweite Wolkendecke Wind METAR/SPECI
11:55 pm
V
63 °F 6¼ mi+ - 060° 060° 3 kt METAR EHGG 262155Z AUTO 06003KT 9999 DZ NSC 17/15 Q1016
11:25 pm
V
63 °F 6¼ mi+ - 070° 070° 3 kt METAR EHGG 262125Z AUTO 07003KT 9999 NSC 17/15 Q1016 REDZ
10:55 pm
V
63 °F 6¼ mi+ - 050° 050° 2 kt METAR EHGG 262055Z AUTO 05002KT 9999 NSC 17/15 Q1016 NOSIG
10:25 pm
V
63 °F 6¼ mi+ - 340° 340° 2 kt METAR EHGG 262025Z AUTO 34002KT 9999 NSC 17/15 Q1016 NOSIG
9:55 pm
V
64 °F 6¼ mi+ - Var Var 1 kt METAR EHGG 261955Z AUTO VRB01KT 9999 NSC 18/15 Q1016 NOSIG
9:25 pm
V
64 °F 6¼ mi+ - 070° 070° 1 kt METAR EHGG 261925Z AUTO 07001KT 9999 NSC 18/14 Q1015 NOSIG
8:55 pm
V
66 °F 6¼ mi+ - Var Var 1 kt METAR EHGG 261855Z AUTO VRB01KT 9999 NSC 19/14 Q1015 NOSIG
8:25 pm
V
66 °F 6¼ mi+ - 220° 220° 3 kt METAR EHGG 261825Z AUTO 22003KT 180V240 9999 NSC 19/14 Q1015 NOSIG
7:55 pm
V
66 °F 6¼ mi+ - 260° 260° 3 kt METAR EHGG 261755Z AUTO 26003KT 220V280 9999 NSC 19/13 Q1015 NOSIG
7:25 pm
V
68 °F 6¼ mi+ - 230° 230° 4 kt METAR EHGG 261725Z AUTO 23004KT 200V270 9999 NSC 20/14 Q1015 NOSIG
6:55 pm
V
66 °F 6¼ mi+ - 230° 230° 4 kt METAR EHGG 261655Z AUTO 23004KT 190V270 9999 NSC 19/13 Q1016 NOSIG
6:25 pm
V
68 °F 6¼ mi+ - 220° 220° 5 kt METAR EHGG 261625Z AUTO 22005KT 9999 NSC 20/13 Q1016 NOSIG
5:55 pm
V
68 °F 6¼ mi+ - 210° 210° 5 kt METAR EHGG 261555Z AUTO 21005KT 9999 NSC 20/13 Q1016 NOSIG
5:25 pm
V
68 °F 6¼ mi+ - 190° 190° 6 kt METAR EHGG 261525Z AUTO 19006KT 140V220 9999 NSC 20/13 Q1016 NOSIG
4:55 pm
V
68 °F 6¼ mi+ - 180° 180° 4 kt METAR EHGG 261455Z AUTO 18004KT 110V220 9999 NSC 20/13 Q1016 NOSIG
4:25 pm
V
68 °F 6¼ mi+ - 200° 200° 4 kt METAR EHGG 261425Z AUTO 20004KT 150V230 9999 -DZRA FEW022CB 20/14 Q1016 NOSIG
3:55 pm
V
68 °F 6¼ mi+ - 200° 200° 8 kt METAR EHGG 261355Z AUTO 20008KT 9999 -DZRA FEW029CB 20/13 Q1016 NOSIG
3:25 pm
V
70 °F 6¼ mi+ - 200° 200° 7 kt METAR EHGG 261325Z AUTO 20007KT 170V230 9999 NSC 21/13 Q1016 NOSIG
2:55 pm
V
70 °F 6¼ mi+ - 190° 190° 6 kt METAR EHGG 261255Z AUTO 19006KT 150V240 9999 FEW041 21/13 Q1016 NOSIG
2:25 pm
V
70 °F 6¼ mi+ - 190° 190° 7 kt METAR EHGG 261225Z AUTO 19007KT 150V240 9999 SCT046 21/13 Q1015 NOSIG
1:55 pm
V
70 °F 6¼ mi+ 3.200 ft 190° 190° 7 kt METAR EHGG 261155Z AUTO 19007KT 110V250 9999 BKN032 BKN037 BKN041 21/14 Q1015 NOSIG
1:25 pm
V
70 °F 6¼ mi+ - 220° 220° 4 kt METAR EHGG 261125Z AUTO 22004KT 170V280 9999 NSC 21/14 Q1015 NOSIG
12:55 pm
V
70 °F 6¼ mi+ - 220° 220° 6 kt METAR EHGG 261055Z AUTO 22006KT 190V250 9999 FEW034 SCT041 21/13 Q1015 NOSIG
12:25 pm
V
70 °F 6¼ mi+ - 230° 230° 8 kt METAR EHGG 261025Z AUTO 23008KT 200V270 9999 NSC 21/14 Q1015 NOSIG
11:55 am
V
68 °F 6¼ mi+ - 240° 240° 8 kt METAR EHGG 260955Z AUTO 24008KT 220V280 9999 FEW026 SCT034 20/14 Q1015 NOSIG
11:25 am
V
70 °F 6¼ mi+ - 230° 230° 10 kt METAR EHGG 260925Z AUTO 23010KT 200V280 9999 FEW044 21/15 Q1015 NOSIG
10:55 am
V
68 °F 6¼ mi+ 3.400 ft 230° 230° 8 kt METAR EHGG 260855Z AUTO 23008KT 200V280 9999 BKN034 BKN039 20/16 Q1014 NOSIG
10:25 am
M
66 °F 6¼ mi+ 1.200 ft 230° 230° 7 kt METAR EHGG 260825Z AUTO 23007KT 180V270 9999 BKN012 OVC016 19/16 Q1014 BECMG SCT015
9:55 am
V
64 °F 6¼ mi+ 3.100 ft 220° 220° 8 kt METAR EHGG 260755Z AUTO 22008KT 9999 FEW010 BKN031 BKN037 18/16 Q1014 NOSIG
9:25 am
M
64 °F 6¼ mi+ 1.100 ft 220° 220° 7 kt METAR EHGG 260725Z AUTO 22007KT 180V240 9999 FEW007 SCT009 BKN011 18/16 Q1014 BECMG BKN017
8:55 am
I
64 °F 6¼ mi+ 700 ft 210° 210° 7 kt METAR EHGG 260655Z AUTO 21007KT 180V240 9999 SCT006 BKN007 OVC008 18/16 Q1013 BECMG BKN017
8:25 am
M
63 °F 6¼ mi+ 1.400 ft 220° 220° 7 kt METAR EHGG 260625Z AUTO 22007KT 190V250 9999 FEW006 BKN014 17/16 Q1013 BECMG BKN017 TEMPO BKN008
7:55 am
I
63 °F 6¼ mi+ 900 ft 210° 210° 7 kt METAR EHGG 260555Z AUTO 21007KT 9999 FEW006 SCT008 BKN009 17/16 Q1013 BECMG SCT012 BKN018
7:25 am
V
63 °F 6¼ mi+ - 210° 210° 5 kt METAR EHGG 260525Z AUTO 21005KT 9999 FEW007 SCT012 17/16 Q1012 TEMPO SCT008 BKN012
6:55 am
V
63 °F 6¼ mi+ - 230° 230° 6 kt METAR EHGG 260455Z AUTO 23006KT 9999 NSC 17/16 Q1012 NOSIG
6:25 am
V
63 °F 6¼ mi+ - 240° 240° 5 kt METAR EHGG 260425Z AUTO 24005KT 9999 NSC 17/15 Q1011 NOSIG
5:55 am
V
63 °F 6¼ mi+ - 240° 240° 6 kt METAR EHGG 260355Z AUTO 24006KT 9999 NSC 17/15 Q1011
5:25 am
V
63 °F 6¼ mi+ - 260° 260° 4 kt METAR EHGG 260325Z AUTO 26004KT 9999 FEW015CB 17/16 Q1011
4:55 am
M
63 °F 4⅜ mi 1.500 ft 220° 220° 4 kt METAR EHGG 260255Z AUTO 22004KT 180V260 7000 -RA BKN015CB 17/16 Q1012 RERA
4:25 am
V
63 °F 5⅝ mi - Var Var 2 kt METAR EHGG 260225Z AUTO VRB02KT 9000 RA FEW015CB 17/16 Q1011
3:55 am
V
63 °F 6¼ mi+ - 260° 260° 5 kt METAR EHGG 260155Z AUTO 26005KT 230V290 9999 NSC 17/16 Q1011
3:25 am
V
64 °F 6¼ mi+ - 250° 250° 9 - 19 kt METAR EHGG 260125Z AUTO 25009G19KT 9999 FEW007 SCT013 18/16 Q1011
2:55 am
V
63 °F 6¼ mi+ - 110° 110° 4 kt METAR EHGG 260055Z AUTO 11004KT 9999 NSC 17/16 Q1010
2:25 am
V
64 °F 6¼ mi+ - 100° 100° 3 kt METAR EHGG 260025Z AUTO 10003KT 070V130 9999 NSC 18/16 Q1011
1:55 am
V
64 °F 6¼ mi+ - 090° 090° 5 kt METAR EHGG 252355Z AUTO 09005KT 9999 NSC 18/16 Q1011
1:25 am
V
64 °F 6¼ mi+ - 090° 090° 4 kt METAR EHGG 252325Z AUTO 09004KT 9999 NSC 18/16 Q1011
12:55 am
V
64 °F 6¼ mi+ - 090° 090° 4 kt METAR EHGG 252255Z AUTO 09004KT 9999 NSC 18/17 Q1011
12:25 am
V
63 °F 5⅝ mi - 080° 080° 3 kt METAR EHGG 252225Z AUTO 08003KT 9000 NSC 17/17 Q1011

25. Juni 2022

Uhrzeit Code Wetter Temp. Sichtweite Wolkendecke Wind METAR/SPECI
11:55 pm
M
64 °F 4⅜ mi - 070° 070° 3 kt METAR EHGG 252155Z AUTO 07003KT 7000 NSC 18/17 Q1011
11:25 pm
V
64 °F 5 mi - 070° 070° 4 kt METAR EHGG 252125Z AUTO 07004KT 8000 NSC 18/17 Q1011
10:55 pm
V
64 °F 6¼ mi+ - 060° 060° 5 kt METAR EHGG 252055Z AUTO 06005KT 9999 NSC 18/17 Q1011
10:25 pm
V
64 °F 6¼ mi+ - 050° 050° 6 kt METAR EHGG 252025Z AUTO 05006KT 9999 NSC 18/16 Q1011 NOSIG
9:55 pm
V
66 °F 6¼ mi+ - 060° 060° 8 kt METAR EHGG 251955Z AUTO 06008KT 9999 NSC 19/16 Q1011 NOSIG
9:25 pm
V
66 °F 6¼ mi+ - 040° 040° 9 kt METAR EHGG 251925Z AUTO 04009KT 9999 NSC 19/16 Q1011 NOSIG
8:55 pm
V
66 °F 6¼ mi+ - 040° 040° 9 kt METAR EHGG 251855Z AUTO 04009KT 360V060 9999 FEW012 19/16 Q1011 NOSIG
8:25 pm
V
68 °F 6¼ mi+ - 010° 010° 8 kt METAR EHGG 251825Z AUTO 01008KT 330V060 9999 NSC 20/17 Q1011 NOSIG
7:55 pm
V
70 °F 6¼ mi+ - 020° 020° 8 kt METAR EHGG 251755Z AUTO 02008KT 340V060 9999 FEW045 21/17 Q1011 NOSIG
7:25 pm
V
70 °F 6¼ mi+ - 350° 350° 8 kt METAR EHGG 251725Z AUTO 35008KT 320V040 9999 NSC 21/17 Q1011 NOSIG
6:55 pm
V
70 °F 6¼ mi+ 4.200 ft 320° 320° 11 kt METAR EHGG 251655Z AUTO 32011KT 290V360 9999 SCT037 BKN042 21/17 Q1011 NOSIG
6:25 pm
V
72 °F 6¼ mi+ - 270° 270° 6 kt METAR EHGG 251625Z AUTO 27006KT 200V340 9999 FEW040/// 22/18 Q1011 NOSIG
5:55 pm
V
75 °F 6¼ mi+ - 230° 230° 3 kt METAR EHGG 251555Z AUTO 23003KT 150V270 9999 NSC 24/15 Q1011 NOSIG
5:25 pm
V
75 °F 6¼ mi+ - 200° 200° 6 kt METAR EHGG 251525Z AUTO 20006KT 140V250 9999 NSC 24/15 Q1011 NOSIG
4:55 pm
V
75 °F 6¼ mi+ - 180° 180° 4 kt METAR EHGG 251455Z AUTO 18004KT 110V240 9999 NSC 24/15 Q1011 NOSIG
4:25 pm
V
73 °F 6¼ mi+ - 210° 210° 5 kt METAR EHGG 251425Z AUTO 21005KT 140V300 9999 NSC 23/16 Q1012 NOSIG
3:55 pm
V
70 °F 6¼ mi+ - 250° 250° 6 kt METAR EHGG 251355Z AUTO 25006KT 210V290 9999 NSC 21/16 Q1012 NOSIG
Ältere Daten

Laden Sie unsere App herunter

Einfacher Zugriff auf das gesamte Flugwetter auf Ihrem Mobiltelefon und Tablet.
Mit vielen Funktionen, die auf der Website nicht verfügbar sind, wie Offline-Unterstützung und eine persönliche Flughafenliste.

Wir und Dritte verfolgen dein Internetverhalten auf unserer Website mit Cookies. Wenn du fortfährst, gehen wir davon aus, dass du mit unserer Cookie-Richtlinie einverstanden bist. Mehr erfahren